Time;durP1;ratioP1;P1;durP2;ratioP2;P2;SDS_P1;SDS_P2;PMS_P1;PMS_P2;Temp;Humidity;BMP_temperature;BMP_pressure;BME280_temperature;BME280_humidity;BME280_pressure;Samples;Min_cycle;Max_cycle;Signal;HPM_P1;HPM_P2
2022/05/24 00:00:26;;;;;;;9.00;3.90;;;13.80;99.90;;;;;;4226162;28;20119;-82
2022/05/24 00:02:27;;;;;;;10.35;4.80;;;13.80;99.90;;;;;;4219996;28;20513;-82
2022/05/24 00:04:28;;;;;;;8.52;3.85;;;13.80;99.90;;;;;;4237757;27;20043;-82
2022/05/24 00:06:31;;;;;;;6.57;4.10;;;13.80;99.90;;;;;;4234479;27;20074;-82
2022/05/24 00:08:32;;;;;;;13.23;5.07;;;13.80;99.90;;;;;;4238315;27;20054;-82
2022/05/24 00:10:33;;;;;;;10.52;4.72;;;13.80;99.90;;;;;;4234765;27;20475;-82
2022/05/24 00:12:34;;;;;;;9.40;4.30;;;13.70;99.90;;;;;;4235091;27;20050;-82
2022/05/24 00:16:54;;;;;;;7.97;4.65;;;13.70;99.90;;;;;;4237342;27;20043;-82
2022/05/24 00:18:55;;;;;;;7.82;4.60;;;13.70;99.90;;;;;;4245639;27;20039;-83
2022/05/24 00:21:03;;;;;;;10.50;4.45;;;13.70;99.90;;;;;;4246390;27;20043;-82
2022/05/24 00:23:04;;;;;;;9.95;5.07;;;13.60;99.90;;;;;;4237173;27;20487;-82
2022/05/24 00:25:05;;;;;;;9.65;4.55;;;13.60;99.90;;;;;;4237804;27;20100;-82
2022/05/24 00:27:06;;;;;;;8.88;4.80;;;13.50;99.90;;;;;;4219502;28;20036;-82
2022/05/24 00:29:07;;;;;;;9.50;5.25;;;13.50;99.90;;;;;;4237716;27;20075;-82
2022/05/24 00:31:07;;;;;;;6.47;4.18;;;13.50;99.90;;;;;;4238213;27;20047;-82
2022/05/24 00:33:08;;;;;;;6.88;4.20;;;13.40;99.90;;;;;;4244981;27;20058;-82
2022/05/24 00:35:09;;;;;;;7.28;4.25;;;13.40;99.90;;;;;;4219192;28;20036;-82
2022/05/24 00:37:10;;;;;;;6.28;4.28;;;13.40;99.90;;;;;;4245983;27;20039;-82
2022/05/24 00:39:11;;;;;;;10.50;5.35;;;13.30;99.90;;;;;;4248633;27;20077;-82
2022/05/24 00:41:25;;;;;;;7.97;4.20;;;13.30;99.90;;;;;;4245709;27;20035;-82
2022/05/24 00:44:05;;;;;;;10.05;4.88;;;13.30;99.90;;;;;;4242858;27;20043;-82
2022/05/24 00:46:11;;;;;;;6.97;3.78;;;13.30;99.90;;;;;;4212277;28;20179;-82
2022/05/24 00:48:36;;;;;;;8.77;4.65;;;13.30;99.90;;;;;;4245893;27;20070;-82
2022/05/24 00:50:40;;;;;;;6.88;4.10;;;13.30;99.90;;;;;;4234240;27;20161;-81
2022/05/24 00:52:58;;;;;;;9.07;5.28;;;13.30;99.90;;;;;;4245837;27;20047;-82
2022/05/24 00:55:00;;;;;;;8.15;4.60;;;13.30;99.90;;;;;;4247998;27;20047;-82
2022/05/24 00:57:11;;;;;;;8.68;4.25;;;13.20;99.90;;;;;;4218233;28;20094;-82
2022/05/24 00:59:21;;;;;;;7.28;3.90;;;13.30;99.90;;;;;;4235362;27;20503;-82
2022/05/24 01:01:38;;;;;;;9.68;4.68;;;13.30;99.90;;;;;;4247350;27;20054;-82
2022/05/24 01:03:39;;;;;;;6.55;3.30;;;13.30;99.90;;;;;;4237235;27;20039;-82
2022/05/24 01:05:41;;;;;;;7.93;4.07;;;13.30;99.90;;;;;;4241264;27;20031;-82
2022/05/24 01:07:41;;;;;;;9.88;3.50;;;13.20;99.90;;;;;;4236719;27;20494;-82
2022/05/24 01:09:58;;;;;;;5.32;3.35;;;13.30;99.90;;;;;;4236980;27;20100;-82
2022/05/24 01:12:08;;;;;;;7.82;3.22;;;13.20;99.90;;;;;;4221121;28;20447;-82
2022/05/24 01:14:11;;;;;;;6.32;3.30;;;13.30;99.90;;;;;;4240197;27;20547;-82
2022/05/24 01:16:13;;;;;;;5.80;3.50;;;13.20;99.90;;;;;;4236741;27;20076;-82
2022/05/24 01:18:14;;;;;;;7.53;3.25;;;13.20;99.90;;;;;;4237064;27;20031;-82
2022/05/24 01:20:15;;;;;;;10.27;3.10;;;13.20;99.90;;;;;;4238559;27;20077;-81
2022/05/24 01:22:34;;;;;;;6.32;3.25;;;13.10;99.90;;;;;;4224517;28;20044;-81
2022/05/24 01:24:55;;;;;;;6.57;2.80;;;13.10;99.90;;;;;;4244588;27;20043;-82
2022/05/24 01:26:57;;;;;;;8.02;3.10;;;13.00;99.90;;;;;;4233253;27;20423;-82
2022/05/24 01:29:01;;;;;;;9.77;3.20;;;13.00;99.90;;;;;;4226855;28;20088;-81
2022/05/24 01:31:02;;;;;;;7.05;2.50;;;13.00;99.90;;;;;;4235952;27;20097;-81
2022/05/24 01:37:42;;;;;;;5.32;2.95;;;12.80;99.90;;;;;;4227119;28;19970;-82
2022/05/24 01:39:45;;;;;;;6.50;3.05;;;12.70;99.90;;;;;;4244886;27;20051;-82
2022/05/24 01:41:48;;;;;;;7.15;3.45;;;12.70;99.90;;;;;;4245215;27;20396;-82
2022/05/24 01:43:52;;;;;;;5.47;3.15;;;12.70;99.90;;;;;;4226298;28;20063;-82
2022/05/24 01:46:06;;;;;;;7.05;3.40;;;12.70;99.90;;;;;;4236167;27;20044;-82
2022/05/24 01:48:17;;;;;;;5.32;3.90;;;12.60;99.90;;;;;;4235820;27;20040;-82
2022/05/24 01:50:21;;;;;;;32.47;4.40;;;12.60;99.90;;;;;;4239260;27;20444;-82
2022/05/24 01:52:38;;;;;;;9.35;3.38;;;12.60;99.90;;;;;;4243231;27;20482;-82
2022/05/24 01:54:45;;;;;;;8.32;4.00;;;12.50;99.90;;;;;;4236305;27;20411;-82
2022/05/24 01:56:59;;;;;;;9.57;4.35;;;12.50;99.90;;;;;;4242743;27;20054;-82
2022/05/24 01:59:01;;;;;;;4.85;3.40;;;12.50;99.90;;;;;;4245210;27;20498;-81
2022/05/24 02:01:11;;;;;;;5.82;3.90;;;12.40;99.90;;;;;;4245164;27;20035;-82
2022/05/24 02:03:13;;;;;;;11.48;4.20;;;12.50;99.90;;;;;;4244575;27;20047;-81
2022/05/24 02:05:27;;;;;;;7.20;4.10;;;12.50;99.90;;;;;;4244868;27;20110;-82
2022/05/24 02:07:27;;;;;;;9.65;4.30;;;12.40;99.90;;;;;;4243341;27;20040;-82
2022/05/24 02:09:29;;;;;;;7.43;3.80;;;12.60;99.90;;;;;;4244745;27;20530;-82
2022/05/24 02:11:31;;;;;;;6.05;3.75;;;12.30;99.90;;;;;;4226452;28;20111;-81
2022/05/24 02:13:37;;;;;;;9.13;3.97;;;12.40;99.90;;;;;;4236270;27;20404;-82
2022/05/24 02:15:42;;;;;;;8.27;4.22;;;12.40;99.90;;;;;;4234407;27;20047;-82
2022/05/24 02:18:04;;;;;;;8.75;4.28;;;12.40;99.90;;;;;;4247046;27;20050;-82
2022/05/24 02:20:08;;;;;;;8.43;3.88;;;12.40;99.90;;;;;;4235636;27;20042;-82
2022/05/24 02:22:14;;;;;;;9.18;4.35;;;12.40;99.90;;;;;;4235287;27;20475;-82
2022/05/24 02:24:19;;;;;;;10.90;4.32;;;12.40;99.90;;;;;;4235563;27;20077;-82
2022/05/24 02:26:23;;;;;;;7.50;4.63;;;12.40;99.90;;;;;;4225990;28;20063;-82
2022/05/24 02:28:29;;;;;;;6.05;3.92;;;12.40;99.90;;;;;;4242928;27;20054;-82
2022/05/24 02:30:31;;;;;;;8.20;4.30;;;12.40;99.90;;;;;;4237493;27;20046;-82
2022/05/24 02:32:31;;;;;;;7.57;4.43;;;12.40;99.90;;;;;;4244418;27;20031;-82
2022/05/24 02:34:34;;;;;;;9.90;4.55;;;12.50;99.90;;;;;;4242238;27;20128;-82
2022/05/24 02:36:36;;;;;;;11.23;4.90;;;12.50;99.90;;;;;;4235474;27;20085;-82
2022/05/24 02:38:36;;;;;;;10.20;4.88;;;12.50;99.90;;;;;;4235662;27;20039;-82
2022/05/24 02:42:57;;;;;;;8.82;4.43;;;12.60;99.90;;;;;;4235399;27;20052;-82
2022/05/24 02:44:57;;;;;;;9.63;5.22;;;12.60;99.90;;;;;;4239847;27;20510;-82
2022/05/24 02:46:58;;;;;;;7.18;4.18;;;12.60;99.90;;;;;;4239516;27;20036;-82
2022/05/24 02:48:59;;;;;;;9.57;5.13;;;12.60;99.90;;;;;;4239441;27;20035;-82
2022/05/24 02:51:00;;;;;;;10.38;4.93;;;12.70;99.90;;;;;;4243960;27;20074;-82
2022/05/24 02:53:00;;;;;;;10.60;5.30;;;12.90;99.90;;;;;;4243604;27;20058;-82
2022/05/24 02:55:01;;;;;;;8.50;4.97;;;12.70;99.90;;;;;;4239507;27;20058;-82
2022/05/24 02:57:04;;;;;;;9.95;5.40;;;12.70;99.90;;;;;;4232616;27;20544;-81
2022/05/24 02:59:06;;;;;;;8.85;5.22;;;12.70;99.90;;;;;;4221175;28;20122;-82
2022/05/24 03:01:18;;;;;;;10.93;5.13;;;12.80;99.90;;;;;;4240156;27;20047;-82
2022/05/24 03:03:18;;;;;;;9.13;5.57;;;12.80;99.90;;;;;;4240864;27;20050;-82
2022/05/24 03:05:20;;;;;;;8.93;5.13;;;12.80;99.90;;;;;;4220069;28;20048;-82
2022/05/24 03:09:39;;;;;;;10.43;5.00;;;12.90;99.90;;;;;;4243608;27;20467;-82
2022/05/24 03:14:14;;;;;;;13.07;5.13;;;12.90;99.90;;;;;;4245267;27;20453;-82
2022/05/24 03:16:16;;;;;;;9.60;5.35;;;12.90;99.90;;;;;;4244434;27;20045;-82
2022/05/24 03:18:18;;;;;;;13.77;6.20;;;12.80;99.90;;;;;;4244939;27;20047;-82
2022/05/24 03:20:20;;;;;;;11.65;5.63;;;12.90;99.90;;;;;;4247387;27;20458;-81
2022/05/24 03:22:21;;;;;;;11.15;5.90;;;12.90;99.90;;;;;;4219917;28;20042;-81
2022/05/24 03:24:21;;;;;;;12.65;6.05;;;12.90;99.90;;;;;;4248428;27;20043;-83
2022/05/24 03:26:23;;;;;;;12.18;6.55;;;12.30;99.90;;;;;;4235359;28;20119;-81
2022/05/24 03:28:24;;;;;;;9.60;5.97;;;12.90;99.90;;;;;;4256598;27;20050;-81
2022/05/24 03:30:27;;;;;;;16.45;6.65;;;12.80;99.90;;;;;;4247765;27;20094;-81
2022/05/24 03:32:33;;;;;;;14.02;6.80;;;13.00;99.90;;;;;;4242926;27;20047;-81
2022/05/24 03:34:35;;;;;;;14.18;6.22;;;13.00;99.90;;;;;;4251242;27;20122;-82
2022/05/24 03:36:36;;;;;;;17.45;8.00;;;13.00;99.90;;;;;;4238725;27;20071;-81
2022/05/24 03:38:37;;;;;;;13.10;7.32;;;13.00;99.90;;;;;;4245940;27;20099;-82
2022/05/24 03:40:37;;;;;;;14.35;7.65;;;13.00;99.90;;;;;;4223972;28;20074;-81
2022/05/24 03:42:39;;;;;;;15.38;7.82;;;13.00;99.90;;;;;;4238980;28;20039;-82
2022/05/24 03:44:40;;;;;;;13.95;7.60;;;13.10;99.90;;;;;;4247449;28;20120;-82
2022/05/24 03:46:42;;;;;;;13.57;7.63;;;13.10;99.90;;;;;;4247906;27;20043;-81
2022/05/24 03:48:43;;;;;;;12.85;6.78;;;13.10;99.90;;;;;;4250275;28;20105;-82
2022/05/24 03:50:45;;;;;;;13.85;7.85;;;13.20;99.90;;;;;;4249234;28;20050;-81
2022/05/24 03:52:46;;;;;;;18.33;8.25;;;13.10;99.90;;;;;;4253889;28;20057;-81
2022/05/24 03:54:46;;;;;;;15.05;7.50;;;13.10;99.90;;;;;;4235425;28;20048;-82
2022/05/24 03:59:06;;;;;;;16.92;8.50;;;13.20;99.90;;;;;;4240011;28;20047;-81
2022/05/24 04:01:07;;;;;;;16.30;9.35;;;13.20;99.90;;;;;;4250435;28;20488;-82
2022/05/24 04:03:09;;;;;;;21.75;9.77;;;13.20;99.90;;;;;;4222532;28;20044;-82
2022/05/24 04:05:10;;;;;;;16.77;9.70;;;13.20;99.90;;;;;;4240249;28;20060;-82
2022/05/24 04:07:11;;;;;;;16.92;9.07;;;13.20;99.90;;;;;;4237020;28;20488;-82
2022/05/24 04:09:12;;;;;;;18.10;9.70;;;13.20;99.90;;;;;;4237776;28;20036;-82
2022/05/24 04:11:14;;;;;;;17.73;9.93;;;13.20;99.90;;;;;;4249521;28;20108;-82
2022/05/24 04:13:14;;;;;;;21.08;10.32;;;13.30;99.90;;;;;;4237694;28;20039;-82
2022/05/24 04:15:15;;;;;;;22.25;9.65;;;13.30;99.90;;;;;;4233043;28;20066;-82
2022/05/24 04:17:18;;;;;;;17.50;10.43;;;13.30;99.90;;;;;;4251466;28;20040;-82
2022/05/24 04:19:20;;;;;;;16.15;9.63;;;13.30;99.90;;;;;;4240318;28;20031;-82
2022/05/24 04:21:20;;;;;;;18.10;9.98;;;13.30;99.90;;;;;;4245980;28;20055;-81
2022/05/24 04:23:22;;;;;;;17.80;10.07;;;13.30;99.90;;;;;;4219426;28;20058;-82
2022/05/24 04:25:25;;;;;;;19.10;10.73;;;13.30;99.90;;;;;;4218142;28;20054;-82
2022/05/24 04:27:25;;;;;;;19.90;10.27;;;13.30;99.90;;;;;;4247297;28;20039;-81
2022/05/24 04:29:26;;;;;;;18.65;10.38;;;13.40;99.90;;;;;;4246707;28;20051;-81
2022/05/24 04:31:27;;;;;;;21.65;10.75;;;13.40;99.90;;;;;;4246387;28;20044;-81
2022/05/24 04:33:28;;;;;;;22.65;10.30;;;13.40;99.90;;;;;;4247887;28;20054;-82
2022/05/24 04:35:29;;;;;;;19.10;10.07;;;13.40;99.90;;;;;;4252768;28;20039;-82
2022/05/24 04:37:30;;;;;;;19.30;11.18;;;13.40;99.90;;;;;;4238718;28;20476;-82
2022/05/24 04:39:32;;;;;;;16.98;9.73;;;13.40;99.90;;;;;;4250139;28;20063;-82
2022/05/24 04:43:54;;;;;;;14.88;9.07;;;13.50;99.90;;;;;;4251946;28;20403;-82
2022/05/24 04:45:56;;;;;;;19.83;9.77;;;13.50;99.90;;;;;;4246870;28;20035;-81
2022/05/24 04:47:57;;;;;;;21.80;9.00;;;13.50;99.90;;;;;;4237290;28;20050;-81
2022/05/24 04:50:01;;;;;;;16.48;9.30;;;13.50;99.90;;;;;;4239588;27;20395;-82
2022/05/24 04:52:02;;;;;;;18.40;9.07;;;13.50;99.90;;;;;;4249333;27;20550;-82
2022/05/24 04:54:04;;;;;;;19.65;9.65;;;13.60;99.90;;;;;;4211309;28;20058;-82
2022/05/24 04:56:04;;;;;;;14.88;8.32;;;13.60;99.90;;;;;;4241328;27;20050;-82
2022/05/24 04:58:09;;;;;;;16.38;8.55;;;;;;;;;;4246979;27;20043;-82
2022/05/24 05:00:14;;;;;;;18.20;9.30;;;13.60;99.90;;;;;;4245633;27;20122;-82
2022/05/24 05:02:15;;;;;;;15.50;7.00;;;13.60;99.90;;;;;;4244464;27;20119;-82
2022/05/24 05:04:15;;;;;;;21.63;7.47;;;13.60;99.90;;;;;;4247294;27;20395;-82
2022/05/24 05:06:20;;;;;;;15.77;8.40;;;13.60;99.90;;;;;;4248455;27;20063;-82
2022/05/24 05:08:20;;;;;;;13.98;7.03;;;13.60;99.90;;;;;;4246285;27;20039;-82
2022/05/24 05:10:22;;;;;;;14.38;6.90;;;13.70;99.90;;;;;;4225784;28;20046;-82
2022/05/24 05:12:25;;;;;;;14.35;8.10;;;13.70;99.90;;;;;;4241842;27;20104;-82
2022/05/24 05:14:26;;;;;;;12.38;7.10;;;;;;;;;;4227451;28;20119;-81
2022/05/24 05:16:26;;;;;;;12.85;7.25;;;13.70;99.90;;;;;;4242657;27;20044;-82
2022/05/24 05:18:27;;;;;;;14.10;6.80;;;13.80;99.90;;;;;;4249992;27;20097;-81
2022/05/24 05:20:28;;;;;;;11.00;6.47;;;13.80;99.90;;;;;;4230960;28;20043;-81
2022/05/24 05:22:28;;;;;;;13.13;7.30;;;13.80;99.90;;;;;;4248111;27;20035;-81
2022/05/24 05:24:29;;;;;;;13.70;7.07;;;13.80;99.90;;;;;;4244004;27;20046;-81
2022/05/24 05:26:31;;;;;;;13.15;6.60;;;13.80;99.90;;;;;;4239381;27;20051;-81
2022/05/24 05:28:31;;;;;;;16.33;6.53;;;13.90;99.90;;;;;;4242069;27;20039;-81
2022/05/24 05:32:52;;;;;;;18.05;6.43;;;13.90;99.90;;;;;;4239011;27;20047;-80
2022/05/24 05:34:53;;;;;;;18.23;7.93;;;13.90;99.90;;;;;;4242027;27;20039;-81
2022/05/24 05:36:54;;;;;;;15.93;7.43;;;14.00;99.90;;;;;;4239459;27;20043;-81
2022/05/24 05:38:55;;;;;;;15.25;6.93;;;14.00;99.90;;;;;;4236758;27;20039;-81
2022/05/24 05:40:56;;;;;;;13.38;6.70;;;14.00;99.90;;;;;;4236377;27;20079;-81
2022/05/24 05:42:57;;;;;;;14.60;6.60;;;13.80;99.90;;;;;;4225623;28;20047;-82
2022/05/24 05:44:57;;;;;;;15.90;7.00;;;14.10;99.90;;;;;;4237154;27;20051;-82
2022/05/24 05:46:58;;;;;;;13.88;7.13;;;14.10;99.90;;;;;;4241016;27;20043;-81
2022/05/24 05:48:59;;;;;;;13.70;6.68;;;14.10;99.90;;;;;;4222827;28;20090;-81
2022/05/24 05:51:01;;;;;;;13.20;7.40;;;14.10;99.90;;;;;;4240545;27;20035;-81
2022/05/24 05:53:04;;;;;;;13.05;7.20;;;14.00;99.90;;;;;;4240130;27;20040;-82
2022/05/24 05:55:05;;;;;;;15.18;6.72;;;14.00;99.90;;;;;;4240889;27;20114;-82
2022/05/24 05:57:06;;;;;;;15.63;8.10;;;14.00;99.90;;;;;;4240194;27;20104;-82
2022/05/24 05:59:08;;;;;;;14.45;6.93;;;14.00;99.90;;;;;;4240516;27;20047;-82
2022/05/24 06:01:14;;;;;;;14.13;7.88;;;13.90;99.90;;;;;;4245134;27;20075;-80
2022/05/24 06:03:16;;;;;;;13.82;7.55;;;13.90;99.90;;;;;;4240045;27;20114;-81
2022/05/24 06:05:16;;;;;;;17.60;7.30;;;13.90;99.90;;;;;;4223422;28;20055;-81
2022/05/24 06:07:17;;;;;;;12.70;7.35;;;13.90;99.90;;;;;;4239053;27;20071;-82
2022/05/24 06:09:18;;;;;;;18.95;8.05;;;13.90;99.90;;;;;;4241461;27;20368;-82
2022/05/24 06:11:23;;;;;;;12.43;7.82;;;13.90;99.90;;;;;;4239005;27;20071;-83
2022/05/24 06:13:24;;;;;;;14.48;7.47;;;13.80;99.90;;;;;;4236548;27;20027;-83
2022/05/24 06:15:25;;;;;;;14.55;7.65;;;13.50;99.90;;;;;;4224555;28;20549;-83
2022/05/24 06:17:26;;;;;;;14.05;7.57;;;13.70;99.90;;;;;;4244765;27;20035;-82
2022/05/24 06:19:27;;;;;;;15.65;7.20;;;13.70;99.90;;;;;;4247476;27;20064;-83
2022/05/24 06:21:33;;;;;;;16.80;8.25;;;13.70;99.90;;;;;;4247777;27;20091;-83
2022/05/24 06:23:33;;;;;;;17.02;8.88;;;13.60;99.90;;;;;;4230118;28;20047;-83
2022/05/24 06:25:34;;;;;;;16.95;8.18;;;13.60;99.90;;;;;;4246702;27;20036;-83
2022/05/24 06:27:35;;;;;;;18.77;8.10;;;13.60;99.90;;;;;;4241903;27;20036;-85
2022/05/24 06:29:36;;;;;;;15.50;8.02;;;13.60;99.90;;;;;;4248044;27;20043;-85
2022/05/24 06:31:37;;;;;;;14.90;7.03;;;13.50;99.90;;;;;;4219670;28;20052;-85
2022/05/24 06:33:37;;;;;;;17.13;7.95;;;13.60;99.90;;;;;;4222480;28;20051;-84
2022/05/24 06:35:39;;;;;;;13.38;6.88;;;13.50;99.90;;;;;;4225081;28;20039;-85
2022/05/24 06:37:43;;;;;;;16.85;7.63;;;13.50;99.90;;;;;;4221633;28;20156;-85
2022/05/24 06:39:45;;;;;;;13.73;6.78;;;13.50;99.90;;;;;;4217504;28;20048;-85
2022/05/24 06:41:46;;;;;;;14.63;6.00;;;13.50;99.90;;;;;;4241911;27;20476;-85
2022/05/24 06:43:48;;;;;;;12.98;6.70;;;13.50;99.90;;;;;;4238309;27;20050;-84
2022/05/24 06:45:48;;;;;;;9.27;6.03;;;13.50;99.90;;;;;;4217654;28;20048;-84
2022/05/24 06:47:49;;;;;;;15.23;6.40;;;13.50;99.90;;;;;;4241879;27;20042;-85
2022/05/24 06:49:50;;;;;;;10.32;6.25;;;13.50;99.90;;;;;;4243943;27;20031;-85
2022/05/24 06:51:50;;;;;;;16.23;6.72;;;13.60;99.90;;;;;;4226261;28;20043;-84
2022/05/24 06:53:51;;;;;;;12.15;6.75;;;13.60;99.90;;;;;;4225795;28;20051;-84
2022/05/24 06:55:52;;;;;;;9.00;5.68;;;13.60;99.90;;;;;;4219386;28;20044;-85
2022/05/24 06:57:53;;;;;;;10.93;5.88;;;13.60;99.90;;;;;;4235153;27;20126;-83
2022/05/24 07:02:25;;;;;;;9.93;5.97;;;13.60;99.90;;;;;;4244375;27;20154;-85
2022/05/24 07:04:26;;;;;;;15.93;6.07;;;13.60;99.90;;;;;;4219215;28;20079;-84
2022/05/24 07:06:27;;;;;;;11.38;6.30;;;13.70;99.90;;;;;;4244037;27;20042;-85
2022/05/24 07:08:28;;;;;;;9.90;5.53;;;13.60;99.90;;;;;;4243718;27;20039;-84
2022/05/24 07:10:30;;;;;;;13.48;6.30;;;13.70;99.90;;;;;;4213341;28;20077;-85
2022/05/24 07:12:31;;;;;;;14.40;6.25;;;13.70;99.90;;;;;;4243247;27;20376;-85
2022/05/24 07:14:35;;;;;;;14.23;6.43;;;13.80;99.90;;;;;;4247272;27;20046;-85
2022/05/24 07:16:36;;;;;;;11.10;6.57;;;13.90;99.90;;;;;;4231639;28;20484;-84
2022/05/24 07:18:37;;;;;;;13.98;7.15;;;14.00;99.90;;;;;;4232222;28;20051;-84
2022/05/24 07:20:38;;;;;;;15.63;7.05;;;14.10;99.90;;;;;;4235087;27;20079;-85
2022/05/24 07:22:39;;;;;;;13.57;7.20;;;;;;;;;;4235323;27;20081;-84
2022/05/24 07:24:41;;;;;;;13.18;7.53;;;14.10;99.90;;;;;;4235592;27;20039;-84
2022/05/24 07:26:43;;;;;;;18.20;7.25;;;14.30;99.90;;;;;;4237657;27;20043;-85
2022/05/24 07:28:44;;;;;;;12.20;6.60;;;14.40;99.90;;;;;;4249008;27;20415;-85
2022/05/24 07:30:47;;;;;;;15.88;7.60;;;14.40;99.90;;;;;;4237221;27;20044;-85
2022/05/24 07:32:48;;;;;;;11.60;5.18;;;14.50;99.90;;;;;;4245921;27;20058;-85
2022/05/24 07:34:48;;;;;;;9.75;5.55;;;14.50;99.90;;;;;;4246628;27;20482;-85
2022/05/24 07:36:49;;;;;;;11.48;5.40;;;14.50;99.90;;;;;;4236592;27;20548;-84
2022/05/24 07:38:50;;;;;;;13.15;5.38;;;14.40;99.90;;;;;;4225228;28;20522;-85
2022/05/24 07:47:38;;;;;;;8.00;3.55;;;14.30;99.90;;;;;;4244231;27;20073;-86
2022/05/24 07:49:39;;;;;;;9.32;3.50;;;14.20;99.90;;;;;;4235711;28;20479;-85
2022/05/24 07:51:41;;;;;;;6.07;2.95;;;14.10;99.90;;;;;;4235268;28;20043;-85
2022/05/24 07:53:43;;;;;;;8.18;3.40;;;14.10;99.90;;;;;;4234187;28;20043;-84
2022/05/24 07:55:44;;;;;;;7.30;3.25;;;14.00;99.90;;;;;;4216748;28;20047;-84
2022/05/24 07:57:44;;;;;;;6.43;3.35;;;14.00;99.90;;;;;;4234690;28;20118;-85
2022/05/24 07:59:47;;;;;;;7.88;3.10;;;14.00;99.90;;;;;;4217762;28;20557;-85
2022/05/24 08:01:49;;;;;;;7.00;3.53;;;14.00;99.90;;;;;;4235553;28;20050;-85
2022/05/24 08:03:50;;;;;;;9.13;3.85;;;14.00;99.90;;;;;;4216780;28;20044;-85
2022/05/24 08:05:51;;;;;;;14.48;3.45;;;14.00;99.90;;;;;;4232145;28;20471;-85
2022/05/24 08:07:54;;;;;;;5.60;2.92;;;13.80;99.90;;;;;;4234069;28;20099;-84
2022/05/24 08:09:55;;;;;;;6.68;3.00;;;13.90;99.90;;;;;;4243203;28;20066;-84
2022/05/24 08:11:55;;;;;;;5.53;2.97;;;13.90;99.90;;;;;;4243883;28;20043;-85
2022/05/24 08:13:58;;;;;;;8.80;2.95;;;13.90;99.90;;;;;;4243378;28;20433;-85
2022/05/24 08:15:59;;;;;;;11.88;3.55;;;13.90;99.90;;;;;;4226400;28;20063;-85
2022/05/24 08:18:00;;;;;;;5.18;3.40;;;13.80;99.90;;;;;;4234469;28;20035;-85
2022/05/24 08:20:01;;;;;;;12.25;4.53;;;13.80;99.90;;;;;;4234354;28;20042;-84
2022/05/24 08:22:02;;;;;;;7.85;3.75;;;13.70;99.90;;;;;;4235460;27;20051;-84
2022/05/24 08:24:02;;;;;;;7.78;4.25;;;13.70;99.90;;;;;;4236737;27;20059;-84
2022/05/24 08:26:04;;;;;;;7.80;3.65;;;13.70;99.90;;;;;;4246436;27;20035;-84
2022/05/24 08:28:07;;;;;;;11.80;3.63;;;13.60;99.90;;;;;;4250237;27;20045;-84
2022/05/24 08:30:10;;;;;;;8.10;4.18;;;13.50;99.90;;;;;;4237354;27;20047;-84
2022/05/24 08:32:11;;;;;;;9.68;4.15;;;13.50;99.90;;;;;;4238195;27;20065;-84
2022/05/24 08:34:14;;;;;;;12.52;4.68;;;13.50;99.90;;;;;;4236902;27;20123;-84
2022/05/24 08:36:15;;;;;;;8.85;4.10;;;13.50;99.90;;;;;;4228201;28;20051;-84
2022/05/24 08:38:16;;;;;;;8.30;3.80;;;13.50;99.90;;;;;;4211820;28;20044;-84
2022/05/24 08:40:19;;;;;;;7.97;4.30;;;13.50;99.90;;;;;;4247600;27;20509;-85
2022/05/24 08:42:48;;;;;;;9.88;4.15;;;13.50;99.90;;;;;;4219282;28;20044;-86
2022/05/24 08:49:45;;;;;;;10.18;4.18;;;13.50;99.90;;;;;;4227459;28;20564;-85
2022/05/24 08:51:56;;;;;;;11.10;5.20;;;13.50;99.90;;;;;;4239080;27;20043;-85
2022/05/24 08:54:02;;;;;;;9.77;4.32;;;13.80;99.90;;;;;;4228306;28;20130;-85
2022/05/24 08:56:12;;;;;;;10.45;4.82;;;13.50;99.90;;;;;;4237176;27;20039;-85
2022/05/24 08:58:32;;;;;;;6.65;4.20;;;13.50;99.90;;;;;;4249134;27;20403;-85
2022/05/24 09:00:37;;;;;;;13.90;5.38;;;13.60;99.90;;;;;;4237689;27;20486;-85
2022/05/24 09:02:44;;;;;;;12.50;5.03;;;13.60;99.90;;;;;;4219300;28;20047;-85
2022/05/24 09:04:44;;;;;;;16.70;5.30;;;13.70;99.90;;;;;;4237906;27;20402;-85
2022/05/24 09:06:49;;;;;;;9.77;4.60;;;13.70;99.90;;;;;;4218879;28;20040;-84
2022/05/24 09:09:14;;;;;;;13.77;5.85;;;13.70;99.90;;;;;;4219715;28;20130;-86
2022/05/24 09:11:46;;;;;;;10.85;5.07;;;13.70;99.90;;;;;;4245236;27;20072;-85
2022/05/24 09:14:11;;;;;;;11.18;5.18;;;13.80;99.90;;;;;;4231531;28;20095;-85
2022/05/24 09:16:14;;;;;;;8.32;4.80;;;13.90;99.90;;;;;;4230050;28;20090;-85
2022/05/24 09:18:40;;;;;;;10.07;4.45;;;13.90;99.90;;;;;;4237239;27;20732;-85
2022/05/24 09:20:44;;;;;;;8.27;4.55;;;13.90;99.90;;;;;;4235144;27;20561;-85
2022/05/24 09:22:44;;;;;;;9.30;6.03;;;13.90;99.90;;;;;;4245625;27;20118;-85
2022/05/24 09:24:50;;;;;;;11.25;5.18;;;14.00;99.90;;;;;;4226044;28;20489;-85
2022/05/24 09:27:03;;;;;;;12.88;5.82;;;14.10;99.90;;;;;;4238018;27;20035;-85
2022/05/24 09:29:14;;;;;;;11.07;5.65;;;14.10;99.90;;;;;;4222433;28;20036;-85
2022/05/24 09:31:21;;;;;;;8.63;5.25;;;14.20;99.90;;;;;;4245281;27;20039;-86
2022/05/24 09:33:22;;;;;;;15.60;5.40;;;14.20;99.90;;;;;;4244942;27;20110;-85
2022/05/24 09:35:26;;;;;;;5.47;3.63;;;14.10;99.90;;;;;;4242731;27;20067;-85
2022/05/24 09:37:28;;;;;;;7.15;3.70;;;13.90;99.90;;;;;;4218516;28;20492;-85
2022/05/24 09:39:53;;;;;;;6.45;3.08;;;13.80;99.90;;;;;;4221981;28;20044;-85
2022/05/24 09:42:03;;;;;;;4.93;1.80;;;13.70;99.90;;;;;;4246230;27;20061;-85
2022/05/24 09:44:13;;;;;;;3.40;1.90;;;13.50;99.90;;;;;;4237669;27;20039;-85
2022/05/24 09:46:24;;;;;;;3.40;1.73;;;13.40;99.90;;;;;;4219495;28;20500;-85
2022/05/24 09:48:28;;;;;;;4.55;2.20;;;13.40;99.90;;;;;;4226191;28;20562;-85
2022/05/24 09:50:36;;;;;;;6.95;1.65;;;13.40;99.90;;;;;;4248193;27;20149;-85
2022/05/24 09:52:37;;;;;;;4.00;1.83;;;13.40;99.90;;;;;;4244913;27;20054;-85
2022/05/24 09:54:57;;;;;;;5.07;2.10;;;13.50;99.90;;;;;;4236679;27;20047;-85
2022/05/24 09:57:11;;;;;;;4.55;2.25;;;13.60;99.90;;;;;;4212966;28;20412;-84
2022/05/24 09:59:26;;;;;;;2.85;1.35;;;13.60;99.90;;;;;;4236884;27;20114;-83
2022/05/24 10:01:39;;;;;;;2.70;1.55;;;13.80;99.90;;;;;;4230784;28;20469;-83
2022/05/24 10:03:43;;;;;;;2.20;1.30;;;13.80;99.90;;;;;;4238418;27;20079;-84
2022/05/24 10:05:54;;;;;;;2.63;1.88;;;13.90;99.90;;;;;;4237410;27;20042;-84
2022/05/24 10:07:58;;;;;;;4.35;1.10;;;14.00;99.90;;;;;;4236557;27;20532;-83
2022/05/24 10:10:17;;;;;;;3.25;1.45;;;14.20;99.90;;;;;;4238415;27;20043;-85
2022/05/24 10:12:46;;;;;;;3.67;1.45;;;14.30;99.90;;;;;;4226615;28;20067;-84
2022/05/24 10:15:05;;;;;;;2.67;1.30;;;14.40;99.90;;;;;;4245159;27;20517;-84
2022/05/24 10:17:20;;;;;;;3.83;1.48;;;14.40;99.90;;;;;;4245212;27;20035;-84
2022/05/24 10:19:57;;;;;;;5.85;1.70;;;14.50;99.90;;;;;;4233976;27;20043;-84
2022/05/24 10:22:04;;;;;;;3.92;1.90;;;14.60;99.90;;;;;;4235881;27;20131;-84
2022/05/24 10:24:37;;;;;;;4.13;1.83;;;14.70;99.90;;;;;;4236276;27;20044;-84
2022/05/24 10:27:03;;;;;;;3.80;1.23;;;14.90;99.90;;;;;;4224373;28;20046;-84
2022/05/24 10:29:20;;;;;;;5.03;1.60;;;14.90;99.90;;;;;;4209916;28;20044;-84
2022/05/24 10:31:29;;;;;;;3.30;1.70;;;14.90;99.90;;;;;;4232139;28;20114;-84
2022/05/24 10:38:38;;;;;;;5.53;1.58;;;14.80;99.90;;;;;;4232321;28;20044;-84
2022/05/24 10:40:44;;;;;;;4.80;1.73;;;14.80;99.90;;;;;;4214909;28;20139;-83
2022/05/24 10:43:12;;;;;;;3.53;1.80;;;14.80;99.90;;;;;;4215090;28;20094;-83
2022/05/24 10:45:25;;;;;;;4.03;2.15;;;14.70;99.90;;;;;;4228677;28;20055;-83
2022/05/24 10:47:37;;;;;;;8.60;1.88;;;14.50;99.90;;;;;;4217131;28;20123;-83
2022/05/24 10:49:50;;;;;;;2.55;1.95;;;14.40;99.90;;;;;;4249939;27;20515;-82
2022/05/24 10:52:11;;;;;;;5.13;1.30;;;14.20;99.90;;;;;;4214311;28;20117;-83
2022/05/24 10:54:29;;;;;;;3.78;1.75;;;14.00;99.90;;;;;;4231209;28;20096;-83
2022/05/24 10:57:00;;;;;;;4.95;1.80;;;13.90;99.90;;;;;;4248777;27;20043;-84
2022/05/24 10:59:27;;;;;;;3.85;1.92;;;13.90;99.90;;;;;;4247427;27;20074;-83
2022/05/24 11:01:34;;;;;;;2.53;1.50;;;14.10;99.90;;;;;;4249039;27;20043;-84
2022/05/24 11:03:47;;;;;;;3.55;1.45;;;14.40;99.90;;;;;;4219734;28;20039;-83
2022/05/24 11:05:55;;;;;;;2.58;1.70;;;14.80;99.90;;;;;;4249179;27;20039;-84
2022/05/24 11:08:26;;;;;;;4.63;1.40;;;15.10;99.90;;;;;;4248230;27;20518;-84
2022/05/24 11:10:39;;;;;;;2.85;1.35;;;15.50;99.90;;;;;;4248959;27;20047;-83
2022/05/24 11:12:45;;;;;;;4.00;1.63;;;;;;;;;;4249042;27;20043;-83
2022/05/24 11:15:05;;;;;;;7.38;1.42;;;15.90;99.90;;;;;;4230255;28;20078;-84
2022/05/24 11:17:10;;;;;;;4.07;1.40;;;16.20;99.90;;;;;;4231247;28;20622;-84
2022/05/24 11:19:26;;;;;;;4.60;1.70;;;16.10;99.90;;;;;;4231251;28;20177;-85
2022/05/24 11:21:36;;;;;;;3.45;2.22;;;15.90;99.90;;;;;;4228846;28;20059;-85
2022/05/24 11:23:46;;;;;;;2.28;1.20;;;15.70;99.90;;;;;;4249407;27;20043;-84
2022/05/24 11:26:02;;;;;;;;;;;15.30;99.90;;;;;;4214632;28;20511;-84
2022/05/24 11:28:04;;;;;;;3.08;1.27;;;15.00;99.90;;;;;;4231544;28;19959;-84